YSSY/SYD METAR and TAF weather

Enter ICAO airport designator
Station Type Date Time Source
YSSY METAR 2022/06/25 22:00 UTC NOAA

YSSY 252200Z 31005KT 9999 FEW020 BKN300 09/06 Q1024


Station Type Date Time Source
YSSY Decoded METAR 2022/06/25 22:00 UTC NOAA

Sydney Airport, Australia (YSSY) 33-57S 151-11E 3M
Jun 25, 2022 - 06:00 PM EDT / 2022.06.25 2200 UTC
Wind: from the NW (310 degrees) at 6 MPH (5 KT):0
Visibility: greater than 7 mile(s):0
Sky conditions: mostly cloudy
Temperature: 48 F (9 C)
Dew Point: 42 F (6 C)
Relative Humidity: 81%
Pressure (altimeter): 30.24 in. Hg (1024 hPa)
ob: YSSY 252200Z 31005KT 9999 FEW020 BKN300 09/06 Q1024
cycle: 22

Station Type Date Time Source
YSSY TAF 2022/06/25 21:42 UTC NOAA

TAF YSSY 252029Z 2521/2700 29008KT CAVOK
FM260800 25014KT 9999 FEW050
FM262000 21014KT 9999 SCT030

Example: see airport list